Time;durP1;ratioP1;P1;durP2;ratioP2;P2;SDS_P1;SDS_P2;PMS_P1;PMS_P2;Temp;Humidity;BMP_temperature;BMP_pressure;BME280_temperature;BME280_humidity;BME280_pressure;Samples;Min_cycle;Max_cycle;Signal;HPM_P1;HPM_P2
2023/08/08 00:01:42;;;;;;;107.90;3.30;;;16.90;43.00;;;;;;5037721;28;20189;-81
2023/08/08 00:04:11;;;;;;;107.80;3.07;;;17.00;43.50;;;;;;5038122;28;20208;-81
2023/08/08 00:06:37;;;;;;;107.40;2.90;;;17.20;43.00;;;;;;5037267;28;20700;-81
2023/08/08 00:09:03;;;;;;;107.50;2.60;;;17.10;42.50;;;;;;5037787;28;20840;-81
2023/08/08 00:11:30;;;;;;;107.70;3.00;;;17.10;41.80;;;;;;5037288;28;20832;-81
2023/08/08 00:13:56;;;;;;;107.57;2.83;;;17.00;41.80;;;;;;5037233;28;20410;-81
2023/08/08 00:16:22;;;;;;;108.10;3.00;;;17.10;42.50;;;;;;5036735;28;20502;-81
2023/08/08 00:18:49;;;;;;;107.97;3.17;;;17.10;42.60;;;;;;5037044;28;20530;-81
2023/08/08 00:21:15;;;;;;;107.60;2.73;;;17.00;42.80;;;;;;5041682;28;20407;-81
2023/08/08 00:23:40;;;;;;;107.80;2.97;;;17.20;42.90;;;;;;5037953;28;20455;-81
2023/08/08 00:26:06;;;;;;;108.13;3.13;;;17.00;43.20;;;;;;5037371;28;20168;-81
2023/08/08 00:28:32;;;;;;;107.97;3.10;;;17.40;42.70;;;;;;5037708;28;20191;-81
2023/08/08 00:30:57;;;;;;;108.00;3.17;;;17.00;43.10;;;;;;5037348;28;20218;-81
2023/08/08 00:33:23;;;;;;;107.97;2.90;;;17.10;43.30;;;;;;5037566;28;20199;-81
2023/08/08 00:35:48;;;;;;;108.10;3.10;;;17.00;43.60;;;;;;5037089;28;20220;-81
2023/08/08 00:38:14;;;;;;;108.10;3.00;;;17.10;44.50;;;;;;5037668;28;20644;-81
2023/08/08 00:40:39;;;;;;;108.70;3.40;;;17.10;43.80;;;;;;5037171;28;20682;-81
2023/08/08 00:43:05;;;;;;;108.00;2.87;;;17.10;44.00;;;;;;5037131;28;20595;-81
2023/08/08 00:45:31;;;;;;;108.23;3.10;;;17.60;44.40;;;;;;5037231;28;20199;-81
2023/08/08 00:47:57;;;;;;;107.97;2.77;;;17.30;43.00;;;;;;5037244;28;20164;-81
2023/08/08 00:50:23;;;;;;;108.07;2.90;;;17.30;43.20;;;;;;5037144;28;21092;-81
2023/08/08 00:52:49;;;;;;;107.90;2.80;;;17.60;43.80;;;;;;5037253;28;20520;-81
2023/08/08 00:55:15;;;;;;;108.50;3.30;;;17.50;42.00;;;;;;5039316;28;20407;-81
2023/08/08 00:57:41;;;;;;;108.50;3.20;;;17.40;43.40;;;;;;5036804;28;20422;-81
2023/08/08 01:00:09;;;;;;;108.47;3.10;;;17.50;43.10;;;;;;5036231;28;20431;-81
2023/08/08 01:02:35;;;;;;;107.90;2.63;;;17.40;43.40;;;;;;5036825;28;20882;-81
2023/08/08 01:05:01;;;;;;;108.53;2.90;;;17.20;42.90;;;;;;5036867;28;20505;-81
2023/08/08 01:07:41;;;;;;;108.07;2.83;;;17.40;43.10;;;;;;5036745;28;20177;-81
2023/08/08 01:10:14;;;;;;;108.50;3.40;;;17.30;42.90;;;;;;5036671;28;20447;-81
2023/08/08 01:12:53;;;;;;;108.13;3.07;;;17.50;43.90;;;;;;5037334;28;20418;-81
2023/08/08 01:15:19;;;;;;;107.87;2.83;;;17.90;44.30;;;;;;5036531;28;20411;-81
2023/08/08 01:17:46;;;;;;;109.50;3.37;;;17.50;43.50;;;;;;5038481;28;20473;-81
2023/08/08 01:20:16;;;;;;;108.03;2.97;;;17.60;43.40;;;;;;5035505;28;20822;-81
2023/08/08 01:23:01;;;;;;;107.77;2.77;;;17.60;43.40;;;;;;5035449;28;20442;-81
2023/08/08 01:25:26;;;;;;;108.00;2.93;;;17.60;43.00;;;;;;5035569;28;20511;-81
2023/08/08 01:27:52;;;;;;;108.07;2.90;;;17.70;42.80;;;;;;5036355;28;20914;-81
2023/08/08 01:30:17;;;;;;;108.17;3.00;;;17.40;43.30;;;;;;5036541;28;20560;-81
2023/08/08 01:32:43;;;;;;;108.17;2.97;;;17.60;42.80;;;;;;5036357;28;20184;-81
2023/08/08 01:35:09;;;;;;;108.20;3.00;;;17.50;43.60;;;;;;5036141;28;20319;-81
2023/08/08 01:37:44;;;;;;;108.40;3.37;;;17.50;43.00;;;;;;5036084;28;20248;-81
2023/08/08 01:40:15;;;;;;;108.00;2.80;;;17.40;43.80;;;;;;5035929;28;20454;-81
2023/08/08 01:42:44;;;;;;;108.00;2.80;;;17.90;43.40;;;;;;5035710;28;20399;-81
2023/08/08 01:45:11;;;;;;;108.33;3.03;;;17.70;43.10;;;;;;5036141;28;20473;-81
2023/08/08 01:47:37;;;;;;;108.40;2.90;;;17.40;43.50;;;;;;5036513;28;20403;-81
2023/08/08 01:50:02;;;;;;;108.40;3.07;;;17.60;42.60;;;;;;5035380;28;20526;-81
2023/08/08 01:52:28;;;;;;;108.27;2.77;;;17.40;43.70;;;;;;5035941;28;20177;-81
2023/08/08 01:54:54;;;;;;;108.30;2.93;;;17.60;42.50;;;;;;5036072;28;20231;-81
2023/08/08 01:57:19;;;;;;;108.27;2.93;;;17.60;43.10;;;;;;5038388;28;20183;-81
2023/08/08 01:59:45;;;;;;;108.27;2.93;;;17.50;42.60;;;;;;5033539;28;20195;-81
2023/08/08 02:02:11;;;;;;;108.10;2.80;;;17.50;43.50;;;;;;5033473;28;20574;-81
2023/08/08 02:04:37;;;;;;;108.47;3.10;;;17.50;43.60;;;;;;5033109;28;20455;-81
2023/08/08 02:07:02;;;;;;;108.63;3.10;;;17.50;43.20;;;;;;5033179;28;20173;-81
2023/08/08 02:09:28;;;;;;;108.50;3.00;;;17.50;43.70;;;;;;5032804;28;20224;-81
2023/08/08 02:11:54;;;;;;;108.87;3.23;;;17.60;43.60;;;;;;5032848;28;20169;-81
2023/08/08 02:14:19;;;;;;;108.53;3.00;;;17.50;43.80;;;;;;5032929;28;20261;-81
2023/08/08 02:16:45;;;;;;;108.57;3.17;;;17.60;43.20;;;;;;5032551;28;20169;-81
2023/08/08 02:19:10;;;;;;;108.73;3.30;;;17.60;44.30;;;;;;5032339;28;20683;-81
2023/08/08 02:21:36;;;;;;;108.20;2.70;;;17.60;43.60;;;;;;5032864;28;20176;-81
2023/08/08 02:24:01;;;;;;;121.40;3.97;;;17.50;43.50;;;;;;5032732;28;20203;-81
2023/08/08 02:26:27;;;;;;;108.17;2.70;;;17.50;42.80;;;;;;5032409;28;20165;-82
2023/08/08 02:28:52;;;;;;;108.60;3.07;;;17.70;44.60;;;;;;5032649;28;20331;-82
2023/08/08 02:31:20;;;;;;;108.23;2.80;;;17.50;43.90;;;;;;5032428;28;20174;-82
2023/08/08 02:33:50;;;;;;;108.40;3.03;;;17.50;44.20;;;;;;5032955;28;20195;-82
2023/08/08 02:36:17;;;;;;;108.60;2.93;;;17.50;43.50;;;;;;5032347;28;20415;-82
2023/08/08 02:38:42;;;;;;;108.40;3.00;;;17.60;43.60;;;;;;5032506;28;20518;-82
2023/08/08 02:41:08;;;;;;;109.20;3.23;;;17.80;42.00;;;;;;5032420;28;20455;-82
2023/08/08 02:43:34;;;;;;;108.47;2.87;;;17.70;43.70;;;;;;5031847;28;20528;-82
2023/08/08 02:45:59;;;;;;;108.60;2.97;;;17.70;43.00;;;;;;5034508;28;20173;-81
2023/08/08 02:48:25;;;;;;;108.40;2.90;;;17.60;43.10;;;;;;5034351;28;20168;-81
2023/08/08 02:50:50;;;;;;;108.50;3.00;;;17.60;43.60;;;;;;5035142;28;20256;-81
2023/08/08 02:53:16;;;;;;;108.57;3.00;;;17.50;43.40;;;;;;5034513;28;20181;-81
2023/08/08 02:55:41;;;;;;;108.37;2.90;;;17.60;43.90;;;;;;5034393;28;20170;-81
2023/08/08 02:58:07;;;;;;;108.70;2.97;;;17.40;43.60;;;;;;5034849;28;20176;-81
2023/08/08 03:00:33;;;;;;;108.70;3.10;;;17.40;44.00;;;;;;5034149;28;20187;-81
2023/08/08 03:02:59;;;;;;;108.50;2.90;;;17.20;45.80;;;;;;5034215;28;20256;-81
2023/08/08 03:05:24;;;;;;;108.70;2.90;;;17.20;44.50;;;;;;5033581;28;20204;-81
2023/08/08 03:07:50;;;;;;;108.47;2.97;;;17.50;45.20;;;;;;5033942;28;20449;-81
2023/08/08 03:10:15;;;;;;;108.40;2.80;;;17.40;44.20;;;;;;5034326;28;20196;-81
2023/08/08 03:12:41;;;;;;;108.40;2.70;;;17.30;44.30;;;;;;5034270;28;20172;-81
2023/08/08 03:15:07;;;;;;;108.77;3.00;;;17.30;44.30;;;;;;5033682;28;20651;-81
2023/08/08 03:17:33;;;;;;;108.60;2.87;;;17.40;43.40;;;;;;5035118;28;20214;-81
2023/08/08 03:19:59;;;;;;;108.47;2.87;;;17.20;44.30;;;;;;5034526;28;20442;-81
2023/08/08 03:22:24;;;;;;;108.77;3.17;;;17.30;43.70;;;;;;5035067;28;20226;-81
2023/08/08 03:24:50;;;;;;;108.77;3.00;;;17.40;44.10;;;;;;5038993;28;20204;-81
2023/08/08 03:27:15;;;;;;;108.80;3.00;;;17.30;44.50;;;;;;5039800;28;20176;-81
2023/08/08 03:29:41;;;;;;;108.30;2.80;;;17.60;43.20;;;;;;5038477;28;20188;-81
2023/08/08 03:32:07;;;;;;;108.47;2.70;;;17.50;44.10;;;;;;5038841;28;20168;-81
2023/08/08 03:34:32;;;;;;;108.60;2.77;;;17.70;42.40;;;;;;5038551;28;20173;-81
2023/08/08 03:36:58;;;;;;;108.33;2.73;;;17.70;42.00;;;;;;5038937;28;20172;-81
2023/08/08 03:39:23;;;;;;;108.57;3.00;;;17.90;43.90;;;;;;5038508;28;20220;-81
2023/08/08 03:41:49;;;;;;;108.70;2.93;;;17.50;43.00;;;;;;5038596;28;20180;-81
2023/08/08 03:44:14;;;;;;;108.60;2.83;;;17.40;43.30;;;;;;5038919;28;20287;-81
2023/08/08 03:46:40;;;;;;;108.50;2.90;;;17.30;44.00;;;;;;5038355;28;20632;-81
2023/08/08 03:49:05;;;;;;;108.77;3.17;;;17.30;44.80;;;;;;5038432;28;20574;-81
2023/08/08 03:51:31;;;;;;;108.60;2.70;;;17.20;44.30;;;;;;5038208;28;20181;-81
2023/08/08 03:53:57;;;;;;;108.57;2.77;;;17.50;45.20;;;;;;5038554;28;20208;-81
2023/08/08 03:56:22;;;;;;;108.47;2.67;;;17.50;44.90;;;;;;5038080;28;20177;-81
2023/08/08 03:58:48;;;;;;;108.77;2.90;;;17.40;45.10;;;;;;5037818;28;20238;-81
2023/08/08 04:01:13;;;;;;;108.50;2.80;;;17.50;44.20;;;;;;5037080;28;20259;-81
2023/08/08 04:03:39;;;;;;;108.77;2.90;;;17.30;45.70;;;;;;5038269;28;20208;-81
2023/08/08 04:06:05;;;;;;;109.77;3.30;;;17.20;45.40;;;;;;5037767;28;20168;-81
2023/08/08 04:08:30;;;;;;;109.07;3.20;;;17.30;44.80;;;;;;5038380;28;20208;-81
2023/08/08 04:10:56;;;;;;;108.40;2.70;;;17.60;44.00;;;;;;5038196;28;20204;-81
2023/08/08 04:13:21;;;;;;;108.50;2.87;;;18.00;42.60;;;;;;5038213;28;20441;-81
2023/08/08 04:15:47;;;;;;;108.33;2.60;;;17.80;42.80;;;;;;5037936;28;20169;-81
2023/08/08 04:18:12;;;;;;;108.37;2.70;;;17.70;43.60;;;;;;5038080;28;20173;-81
2023/08/08 04:20:38;;;;;;;108.43;2.77;;;17.70;43.80;;;;;;5037686;28;20255;-81
2023/08/08 04:23:04;;;;;;;108.97;3.17;;;17.60;43.80;;;;;;5038173;28;20633;-81
2023/08/08 04:25:30;;;;;;;108.60;2.80;;;17.70;44.70;;;;;;5037391;28;20656;-81
2023/08/08 04:27:55;;;;;;;108.43;2.73;;;17.60;44.90;;;;;;5038028;28;20180;-81
2023/08/08 04:30:21;;;;;;;108.87;3.10;;;17.70;44.30;;;;;;5038352;28;20426;-81
2023/08/08 04:32:46;;;;;;;108.70;2.73;;;17.70;44.30;;;;;;5038097;28;20172;-81
2023/08/08 04:35:12;;;;;;;109.57;3.30;;;17.90;43.00;;;;;;5036225;28;20180;-81
2023/08/08 04:37:38;;;;;;;108.53;2.87;;;17.70;44.90;;;;;;5038119;28;20168;-81
2023/08/08 04:40:04;;;;;;;108.57;2.73;;;17.80;44.60;;;;;;5038798;28;20260;-81
2023/08/08 04:42:30;;;;;;;108.30;2.80;;;17.80;44.30;;;;;;5039273;28;20683;-81
2023/08/08 04:44:56;;;;;;;108.77;2.97;;;17.60;45.10;;;;;;5039129;28;20863;-81
2023/08/08 04:47:21;;;;;;;108.87;3.03;;;17.60;44.20;;;;;;5038366;28;20477;-81
2023/08/08 04:49:47;;;;;;;108.97;3.30;;;17.90;44.50;;;;;;5037633;28;20250;-81
2023/08/08 04:52:12;;;;;;;108.97;2.90;;;17.60;43.90;;;;;;5040073;28;20174;-81
2023/08/08 04:54:38;;;;;;;109.30;3.20;;;17.60;45.10;;;;;;5039532;28;20665;-81
2023/08/08 04:57:04;;;;;;;108.60;2.70;;;17.80;44.20;;;;;;5042062;28;20188;-81
2023/08/08 04:59:29;;;;;;;108.60;2.93;;;17.70;44.10;;;;;;5037506;28;20588;-81
2023/08/08 05:01:55;;;;;;;108.50;2.70;;;17.60;45.10;;;;;;5037972;28;20172;-81
2023/08/08 05:04:20;;;;;;;108.67;3.10;;;17.50;45.20;;;;;;5037278;28;20211;-81
2023/08/08 05:06:46;;;;;;;109.77;3.60;;;17.60;45.30;;;;;;5037278;28;20351;-81
2023/08/08 05:09:12;;;;;;;109.00;3.10;;;17.60;45.10;;;;;;5037463;28;20570;-81
2023/08/08 05:11:37;;;;;;;108.60;2.70;;;17.90;44.80;;;;;;5037430;28;20181;-81
2023/08/08 05:14:03;;;;;;;108.50;2.70;;;17.70;44.50;;;;;;5037083;28;20180;-81
2023/08/08 05:16:28;;;;;;;108.77;3.20;;;17.70;45.10;;;;;;5036639;28;20173;-81
2023/08/08 05:18:54;;;;;;;108.57;2.87;;;17.90;44.20;;;;;;5036837;28;20277;-81
2023/08/08 05:21:21;;;;;;;108.70;2.87;;;17.80;44.60;;;;;;5037022;28;20529;-81
2023/08/08 05:23:46;;;;;;;108.50;2.60;;;17.70;45.80;;;;;;5037239;28;20706;-81
2023/08/08 05:26:13;;;;;;;109.10;3.30;;;17.90;44.90;;;;;;5035666;28;20415;-79
2023/08/08 05:28:39;;;;;;;108.60;2.93;;;15.50;42.80;;;;;;5035046;28;20196;-79
2023/08/08 05:31:04;;;;;;;108.90;3.10;;;18.10;43.60;;;;;;5035026;28;20961;-79
2023/08/08 05:33:30;;;;;;;108.50;2.73;;;18.20;43.70;;;;;;5034845;28;20604;-79
2023/08/08 05:35:55;;;;;;;108.50;3.03;;;18.50;43.70;;;;;;5034599;28;20247;-79
2023/08/08 05:38:21;;;;;;;108.90;3.17;;;18.20;44.30;;;;;;5034776;28;20180;-79
2023/08/08 05:40:46;;;;;;;109.10;3.00;;;18.40;44.70;;;;;;5034603;28;20176;-79
2023/08/08 05:43:16;;;;;;;108.50;2.70;;;18.20;42.90;;;;;;5034890;28;20177;-79
2023/08/08 05:45:42;;;;;;;108.40;2.90;;;17.50;41.90;;;;;;5034060;28;20176;-79
2023/08/08 05:48:11;;;;;;;108.33;2.70;;;18.20;45.80;;;;;;5034649;28;20416;-79
2023/08/08 05:50:40;;;;;;;108.37;2.87;;;18.00;43.60;;;;;;5033917;28;20164;-80
2023/08/08 05:53:06;;;;;;;108.70;3.10;;;18.30;43.40;;;;;;5034646;28;20473;-79
2023/08/08 05:55:32;;;;;;;108.50;2.80;;;18.20;40.00;;;;;;5034646;28;20834;-81
2023/08/08 05:57:57;;;;;;;108.90;3.20;;;18.20;42.70;;;;;;5036362;28;20454;-81
2023/08/08 06:00:23;;;;;;;108.80;3.13;;;18.00;40.80;;;;;;5036086;28;20201;-82
2023/08/08 06:02:48;;;;;;;108.57;2.97;;;17.20;42.50;;;;;;5036715;28;20185;-81
2023/08/08 06:05:17;;;;;;;108.43;2.93;;;17.40;41.80;;;;;;5035498;28;20209;-81
2023/08/08 06:07:43;;;;;;;108.60;3.00;;;18.10;43.80;;;;;;5033014;28;20648;-82
2023/08/08 06:10:10;;;;;;;108.57;3.07;;;18.40;43.20;;;;;;5032744;28;20451;-82
2023/08/08 06:12:36;;;;;;;108.60;3.00;;;18.50;40.20;;;;;;5032901;28;20168;-82
2023/08/08 06:15:03;;;;;;;108.47;2.97;;;19.10;40.80;;;;;;5032685;28;20419;-81
2023/08/08 06:17:29;;;;;;;108.10;2.60;;;18.10;39.00;;;;;;5032572;28;20206;-81
2023/08/08 06:19:56;;;;;;;109.07;2.80;;;18.50;38.50;;;;;;5032182;28;20481;-81
2023/08/08 06:22:22;;;;;;;108.60;2.97;;;18.50;39.30;;;;;;5032586;28;20633;-81
2023/08/08 06:24:48;;;;;;;108.47;3.00;;;19.10;38.80;;;;;;5032278;28;20459;-82
2023/08/08 06:27:13;;;;;;;108.67;3.10;;;19.10;39.00;;;;;;5032775;28;20616;-81
2023/08/08 06:29:39;;;;;;;108.40;2.90;;;19.20;40.90;;;;;;5032166;28;20747;-81
2023/08/08 06:32:05;;;;;;;108.37;2.77;;;19.20;39.70;;;;;;5032486;28;20199;-81
2023/08/08 06:34:30;;;;;;;108.57;3.10;;;19.20;38.10;;;;;;5032244;28;20198;-81
2023/08/08 06:36:56;;;;;;;108.57;3.03;;;19.70;40.40;;;;;;5032245;28;20177;-81
2023/08/08 06:39:21;;;;;;;109.47;3.73;;;19.50;40.40;;;;;;5032133;28;20200;-82
2023/08/08 06:41:47;;;;;;;108.50;3.27;;;19.60;40.20;;;;;;5032075;28;20174;-82
2023/08/08 06:44:13;;;;;;;108.67;3.40;;;19.70;40.30;;;;;;5034085;28;20563;-81
2023/08/08 06:46:38;;;;;;;108.17;2.90;;;19.10;37.00;;;;;;5035236;28;20418;-81
2023/08/08 06:49:04;;;;;;;108.17;2.97;;;18.90;38.10;;;;;;5035176;28;20726;-81
2023/08/08 06:51:30;;;;;;;108.50;3.17;;;19.00;38.40;;;;;;5035901;28;20192;-81
2023/08/08 06:53:56;;;;;;;108.27;2.90;;;19.00;39.00;;;;;;5035203;28;20290;-81
2023/08/08 06:56:21;;;;;;;107.70;2.60;;;19.10;38.90;;;;;;5034418;28;20180;-81
2023/08/08 06:58:47;;;;;;;108.07;2.90;;;19.30;37.10;;;;;;5034417;28;20455;-81
2023/08/08 07:01:13;;;;;;;107.97;3.10;;;19.50;37.80;;;;;;5035532;28;20182;-81
2023/08/08 07:03:39;;;;;;;108.47;3.47;;;19.30;37.80;;;;;;5035406;28;20461;-82
2023/08/08 07:06:05;;;;;;;107.80;3.00;;;19.20;36.80;;;;;;5035473;28;20174;-82
2023/08/08 07:08:31;;;;;;;108.17;3.23;;;18.80;38.10;;;;;;5036410;28;20197;-82
2023/08/08 07:10:57;;;;;;;107.57;2.90;;;19.00;36.10;;;;;;5036425;28;20413;-81
2023/08/08 07:13:23;;;;;;;107.23;2.80;;;18.90;38.30;;;;;;5034875;28;20406;-82
2023/08/08 07:15:49;;;;;;;107.57;3.17;;;19.70;35.70;;;;;;5034508;28;20175;-82
2023/08/08 07:18:15;;;;;;;107.37;3.10;;;20.00;35.80;;;;;;5034622;28;20697;-82
2023/08/08 07:20:40;;;;;;;107.37;3.00;;;19.80;33.80;;;;;;5035040;28;20919;-82
2023/08/08 07:23:06;;;;;;;107.43;3.13;;;19.40;34.90;;;;;;5032915;28;20410;-82
2023/08/08 07:25:32;;;;;;;106.80;2.80;;;19.00;35.10;;;;;;5032107;28;20300;-82
2023/08/08 07:27:57;;;;;;;107.07;3.00;;;19.30;36.20;;;;;;5032355;28;20261;-82
2023/08/08 07:30:24;;;;;;;106.77;2.80;;;19.30;34.60;;;;;;5032632;28;20189;-82
2023/08/08 07:32:49;;;;;;;106.60;2.60;;;19.30;34.50;;;;;;5032559;28;20168;-82
2023/08/08 07:35:15;;;;;;;106.80;2.87;;;19.50;35.40;;;;;;5032103;28;20418;-82
2023/08/08 07:37:41;;;;;;;106.57;2.77;;;19.50;36.00;;;;;;5032779;28;20211;-82
2023/08/08 07:40:20;;;;;;;106.50;2.73;;;19.90;33.30;;;;;;5032042;28;20426;-82
2023/08/08 07:42:46;;;;;;;107.17;3.20;;;20.00;33.40;;;;;;5030815;28;20177;-82
2023/08/08 07:45:12;;;;;;;107.67;2.93;;;20.80;32.40;;;;;;5032284;28;20516;-82
2023/08/08 07:47:37;;;;;;;106.17;2.77;;;20.70;32.10;;;;;;5032021;28;20494;-82
2023/08/08 07:50:03;;;;;;;105.87;2.63;;;20.30;33.50;;;;;;5031535;28;20547;-82
2023/08/08 07:52:29;;;;;;;106.87;2.90;;;20.70;31.90;;;;;;5031656;28;20176;-82
2023/08/08 07:54:55;;;;;;;105.97;2.70;;;20.70;31.00;;;;;;5032064;28;20438;-83
2023/08/08 07:57:20;;;;;;;105.80;2.80;;;20.10;32.40;;;;;;5032194;28;20182;-83
2023/08/08 07:59:46;;;;;;;106.33;3.20;;;20.40;32.50;;;;;;5031938;28;20252;-82
2023/08/08 08:02:11;;;;;;;106.70;3.13;;;20.60;31.90;;;;;;5031525;28;20541;-82
2023/08/08 08:04:37;;;;;;;105.63;2.73;;;19.40;33.40;;;;;;5031639;28;20201;-81
2023/08/08 08:07:02;;;;;;;105.47;2.50;;;19.00;34.00;;;;;;5031538;28;20180;-81
2023/08/08 08:09:28;;;;;;;105.30;2.60;;;19.30;33.30;;;;;;5029564;28;20720;-81
2023/08/08 08:11:54;;;;;;;106.80;3.40;;;19.50;33.70;;;;;;5032048;28;20252;-81
2023/08/08 08:14:21;;;;;;;105.47;2.77;;;19.70;33.40;;;;;;5027610;28;20452;-82
2023/08/08 08:16:47;;;;;;;105.60;2.90;;;19.80;32.60;;;;;;5028617;28;20194;-82
2023/08/08 08:19:13;;;;;;;105.67;2.70;;;20.40;31.70;;;;;;5031334;28;20534;-81
2023/08/08 08:21:38;;;;;;;105.37;2.90;;;21.10;30.40;;;;;;5034007;28;20424;-82
2023/08/08 08:24:05;;;;;;;105.27;2.63;;;21.10;30.00;;;;;;5037210;28;20205;-81
2023/08/08 08:26:31;;;;;;;105.60;3.20;;;20.90;31.00;;;;;;5036349;28;20256;-82
2023/08/08 08:28:57;;;;;;;104.80;2.40;;;21.00;30.00;;;;;;5038806;28;20443;-82
2023/08/08 08:31:23;;;;;;;105.33;3.07;;;20.60;31.00;;;;;;5038541;28;20415;-82
2023/08/08 08:33:48;;;;;;;104.80;2.57;;;20.40;32.20;;;;;;5038822;28;20174;-82
2023/08/08 08:36:14;;;;;;;104.73;2.70;;;20.60;31.50;;;;;;5037904;28;20673;-82
2023/08/08 08:38:40;;;;;;;105.30;3.10;;;20.20;30.80;;;;;;5034546;28;20568;-81
2023/08/08 08:41:05;;;;;;;104.97;2.70;;;19.50;32.20;;;;;;5032388;28;20244;-81
2023/08/08 08:43:31;;;;;;;104.67;2.93;;;19.40;33.60;;;;;;5039091;28;20187;-81
2023/08/08 08:46:02;;;;;;;104.53;2.60;;;19.10;33.40;;;;;;5035151;28;20176;-81
2023/08/08 08:48:28;;;;;;;105.10;3.17;;;19.90;30.70;;;;;;5037466;28;20457;-82
2023/08/08 08:50:54;;;;;;;104.57;2.83;;;19.90;31.90;;;;;;5039073;28;20409;-81
2023/08/08 08:53:22;;;;;;;104.40;2.73;;;19.50;32.10;;;;;;5033728;28;20476;-81
2023/08/08 08:55:48;;;;;;;104.57;2.97;;;20.00;31.90;;;;;;5038989;28;20165;-81
2023/08/08 08:58:18;;;;;;;104.50;3.00;;;20.60;30.80;;;;;;5033344;28;20437;-82
2023/08/08 09:00:46;;;;;;;105.00;3.30;;;20.70;29.90;;;;;;5018736;28;20576;-82
2023/08/08 09:03:11;;;;;;;104.10;2.83;;;20.30;32.70;;;;;;5019718;28;20451;-82
2023/08/08 09:05:41;;;;;;;104.03;2.80;;;20.50;32.00;;;;;;5024574;28;20539;-81
2023/08/08 09:08:06;;;;;;;104.20;3.00;;;20.40;30.80;;;;;;5027312;28;20339;-81
2023/08/08 09:10:32;;;;;;;103.47;2.47;;;20.10;32.20;;;;;;5035924;28;20502;-82
2023/08/08 09:12:58;;;;;;;103.80;3.00;;;19.70;32.70;;;;;;5040077;28;20168;-82
2023/08/08 09:15:23;;;;;;;104.10;2.87;;;20.80;31.10;;;;;;5036055;28;20183;-82
2023/08/08 09:17:49;;;;;;;103.27;2.40;;;20.60;30.70;;;;;;5034746;28;20415;-82
2023/08/08 09:20:17;;;;;;;103.30;2.63;;;20.40;30.20;;;;;;5035372;28;20289;-82
2023/08/08 09:22:42;;;;;;;103.50;2.63;;;21.00;29.90;;;;;;5034684;28;20411;-82
2023/08/08 09:25:08;;;;;;;104.13;3.20;;;20.70;29.70;;;;;;5034952;28;20466;-83
2023/08/08 09:27:35;;;;;;;103.57;2.87;;;20.20;30.70;;;;;;5035596;28;20168;-81
2023/08/08 09:30:00;;;;;;;103.40;2.70;;;19.50;31.50;;;;;;5037826;28;20710;-82
2023/08/08 09:32:30;;;;;;;103.70;2.93;;;19.60;30.30;;;;;;5033595;28;20429;-82
2023/08/08 09:34:57;;;;;;;103.50;3.10;;;19.60;29.80;;;;;;5033599;28;20404;-81
2023/08/08 09:37:23;;;;;;;103.53;2.87;;;20.00;30.70;;;;;;5034221;28;20425;-81
2023/08/08 09:39:56;;;;;;;103.60;2.97;;;20.80;29.90;;;;;;5033517;28;20427;-82
2023/08/08 09:42:22;;;;;;;103.57;3.20;;;20.40;29.10;;;;;;5034181;28;20173;-82
2023/08/08 09:44:48;;;;;;;103.00;2.73;;;20.40;28.70;;;;;;5033108;28;20453;-82
2023/08/08 09:47:14;;;;;;;103.00;2.73;;;20.10;29.60;;;;;;5033136;28;20414;-82
2023/08/08 09:49:41;;;;;;;103.80;3.00;;;20.40;28.80;;;;;;5032970;28;20191;-82
2023/08/08 09:52:07;;;;;;;102.80;2.90;;;20.10;29.90;;;;;;5033396;28;20407;-81
2023/08/08 09:54:33;;;;;;;103.33;3.00;;;20.30;30.00;;;;;;5033358;28;20780;-81
2023/08/08 09:56:59;;;;;;;103.27;2.90;;;20.50;29.80;;;;;;5033344;28;20465;-82
2023/08/08 09:59:25;;;;;;;102.43;2.50;;;21.10;27.20;;;;;;5032866;28;20432;-83
2023/08/08 10:01:51;;;;;;;102.40;2.30;;;21.40;27.90;;;;;;5033132;28;20461;-82
2023/08/08 10:04:17;;;;;;;102.60;2.60;;;21.30;27.90;;;;;;5033212;28;20260;-81
2023/08/08 10:06:43;;;;;;;102.70;3.00;;;21.40;27.90;;;;;;5033067;28;20407;-83
2023/08/08 10:09:09;;;;;;;102.63;2.77;;;21.80;27.30;;;;;;5032719;28;20612;-82
2023/08/08 10:11:35;;;;;;;103.57;2.70;;;21.90;25.20;;;;;;5032653;28;20180;-83
2023/08/08 10:14:03;;;;;;;103.30;3.30;;;22.60;27.10;;;;;;5032782;28;20420;-82
2023/08/08 10:16:33;;;;;;;102.70;2.93;;;22.20;25.90;;;;;;5033210;28;20416;-82
2023/08/08 10:19:00;;;;;;;102.37;2.40;;;21.60;27.30;;;;;;5032258;28;20455;-82
2023/08/08 10:21:26;;;;;;;102.13;2.53;;;21.70;26.40;;;;;;5032711;28;20499;-83
2023/08/08 10:24:04;;;;;;;102.10;2.57;;;21.20;25.80;;;;;;5032575;28;20459;-83
2023/08/08 10:26:29;;;;;;;102.10;2.50;;;20.90;27.30;;;;;;5032869;28;20252;-83
2023/08/08 10:28:56;;;;;;;102.20;2.70;;;21.30;27.50;;;;;;5032759;28;20832;-82
2023/08/08 10:31:22;;;;;;;102.10;2.50;;;21.70;27.20;;;;;;5032612;28;20164;-83
2023/08/08 10:33:48;;;;;;;102.40;2.70;;;22.10;25.90;;;;;;5032315;28;20542;-82
2023/08/08 10:36:13;;;;;;;101.97;2.53;;;21.20;28.10;;;;;;5032481;28;20447;-81
2023/08/08 10:38:41;;;;;;;102.10;2.70;;;21.90;27.00;;;;;;5032491;28;20211;-81
2023/08/08 10:41:18;;;;;;;102.20;2.70;;;22.40;26.10;;;;;;5034960;28;20549;-82
2023/08/08 10:43:56;;;;;;;102.17;2.73;;;22.50;25.30;;;;;;5036573;28;20540;-82
2023/08/08 10:46:30;;;;;;;102.17;2.90;;;22.80;24.90;;;;;;5035728;28;20413;-82
2023/08/08 10:49:01;;;;;;;102.30;3.00;;;23.00;24.90;;;;;;5034534;28;20778;-81
2023/08/08 10:51:38;;;;;;;102.30;3.00;;;22.60;25.00;;;;;;5036307;28;20398;-80
2023/08/08 10:54:12;;;;;;;101.80;2.53;;;23.00;24.70;;;;;;5035917;28;20980;-81
2023/08/08 10:56:38;;;;;;;102.17;2.80;;;23.30;24.80;;;;;;5032655;28;20972;-82
2023/08/08 10:59:17;;;;;;;101.80;2.83;;;23.30;25.30;;;;;;5034689;28;20467;-81
2023/08/08 11:01:47;;;;;;;102.97;3.60;;;23.30;24.00;;;;;;5035174;28;20651;-83
2023/08/08 11:04:13;;;;;;;101.57;2.87;;;23.00;23.40;;;;;;5038427;28;20496;-83
2023/08/08 11:06:39;;;;;;;101.47;2.67;;;22.50;24.60;;;;;;5034109;28;20445;-81
2023/08/08 11:09:06;;;;;;;101.37;2.63;;;21.50;26.80;;;;;;5035812;28;20479;-81
2023/08/08 11:11:39;;;;;;;101.20;2.50;;;22.70;24.80;;;;;;5035016;28;20420;-81
2023/08/08 11:14:17;;;;;;;101.40;2.70;;;22.20;25.20;;;;;;5035683;28;20430;-81
2023/08/08 11:16:44;;;;;;;101.30;2.60;;;23.20;24.80;;;;;;5035774;28;20897;-82
2023/08/08 11:19:10;;;;;;;101.27;2.50;;;23.30;24.20;;;;;;5035627;28;20454;-83
2023/08/08 11:21:42;;;;;;;101.20;2.60;;;23.50;23.30;;;;;;5034847;28;20415;-82
2023/08/08 11:24:09;;;;;;;101.43;2.57;;;23.20;24.00;;;;;;5035251;28;20466;-82
2023/08/08 11:26:35;;;;;;;101.50;2.70;;;23.10;23.70;;;;;;5033847;28;20407;-82
2023/08/08 11:29:03;;;;;;;101.53;2.90;;;23.10;24.10;;;;;;5035508;28;20465;-83
2023/08/08 11:31:29;;;;;;;101.33;2.70;;;23.80;23.20;;;;;;5034109;28;20400;-82
2023/08/08 11:33:55;;;;;;;101.20;2.60;;;22.80;23.80;;;;;;5034408;28;20501;-82
2023/08/08 11:36:22;;;;;;;101.97;2.70;;;22.90;24.20;;;;;;5035119;28;20437;-83
2023/08/08 11:38:49;;;;;;;104.10;3.17;;;22.40;23.90;;;;;;5035502;28;20529;-81
2023/08/08 11:41:16;;;;;;;100.93;2.70;;;22.90;24.60;;;;;;5035366;28;20817;-82
2023/08/08 11:43:43;;;;;;;100.60;2.40;;;23.60;22.30;;;;;;5036154;28;20454;-82
2023/08/08 11:46:11;;;;;;;101.00;2.37;;;24.90;23.20;;;;;;5038068;28;20414;-82
2023/08/08 11:48:37;;;;;;;102.07;2.50;;;25.20;20.40;;;;;;5039118;28;20439;-83
2023/08/08 11:51:04;;;;;;;100.20;2.37;;;26.10;18.90;;;;;;5039702;28;20418;-82
2023/08/08 11:53:30;;;;;;;100.17;2.33;;;26.60;19.80;;;;;;5039300;28;20871;-83
2023/08/08 11:55:57;;;;;;;100.27;2.63;;;26.90;18.50;;;;;;5038360;28;20411;-82
2023/08/08 11:58:25;;;;;;;100.10;2.40;;;27.20;18.60;;;;;;5038544;28;20171;-82
2023/08/08 12:00:51;;;;;;;100.57;2.87;;;26.00;19.60;;;;;;5036364;28;20443;-83
2023/08/08 12:03:18;;;;;;;99.70;2.30;;;24.60;21.10;;;;;;5036691;28;20423;-82
2023/08/08 12:05:46;;;;;;;100.17;2.50;;;24.30;22.30;;;;;;5038185;28;20488;-82
2023/08/08 12:08:12;;;;;;;99.43;2.40;;;25.10;20.40;;;;;;5039046;28;20406;-82
2023/08/08 12:10:37;;;;;;;100.43;2.57;;;25.40;19.60;;;;;;5036938;28;20406;-82
2023/08/08 12:13:03;;;;;;;100.00;2.60;;;24.10;21.80;;;;;;5037478;28;20172;-82
2023/08/08 12:15:35;;;;;;;99.47;2.40;;;23.70;22.40;;;;;;5037697;28;20255;-82
2023/08/08 12:18:02;;;;;;;99.80;2.67;;;23.80;20.90;;;;;;5036380;28;20164;-83
2023/08/08 12:20:29;;;;;;;99.70;2.70;;;23.50;20.50;;;;;;5036800;28;20435;-81
2023/08/08 12:22:55;;;;;;;99.40;2.50;;;23.80;21.30;;;;;;5037063;28;20780;-83
2023/08/08 12:25:21;;;;;;;99.47;2.67;;;24.60;19.60;;;;;;5035738;28;20462;-84